sensor_id;sensor_type;location;lat;lon;timestamp;P1;durP1;ratioP1;P2;durP2;ratioP2
8113;SDS011;4099;52.684;9.918;2022-07-23T00:03:08;9.73;;;7.50;;
8113;SDS011;4099;52.684;9.918;2022-07-23T00:08:09;9.07;;;6.87;;
8113;SDS011;4099;52.684;9.918;2022-07-23T00:13:12;9.17;;;7.43;;
8113;SDS011;4099;52.684;9.918;2022-07-23T00:18:14;6.83;;;6.17;;
8113;SDS011;4099;52.684;9.918;2022-07-23T00:23:16;8.10;;;7.23;;
8113;SDS011;4099;52.684;9.918;2022-07-23T00:28:20;8.90;;;6.80;;
8113;SDS011;4099;52.684;9.918;2022-07-23T00:33:21;7.47;;;6.67;;
8113;SDS011;4099;52.684;9.918;2022-07-23T00:38:23;8.33;;;6.53;;
8113;SDS011;4099;52.684;9.918;2022-07-23T00:43:26;7.20;;;6.50;;
8113;SDS011;4099;52.684;9.918;2022-07-23T00:48:28;6.60;;;5.90;;
8113;SDS011;4099;52.684;9.918;2022-07-23T00:53:30;7.67;;;6.10;;
8113;SDS011;4099;52.684;9.918;2022-07-23T00:58:34;7.27;;;6.57;;
8113;SDS011;4099;52.684;9.918;2022-07-23T01:03:36;8.87;;;7.10;;
8113;SDS011;4099;52.684;9.918;2022-07-23T01:08:38;11.20;;;7.20;;
8113;SDS011;4099;52.684;9.918;2022-07-23T01:13:42;10.23;;;8.23;;
8113;SDS011;4099;52.684;9.918;2022-07-23T01:18:44;8.77;;;7.83;;
8113;SDS011;4099;52.684;9.918;2022-07-23T01:23:47;9.90;;;8.47;;
8113;SDS011;4099;52.684;9.918;2022-07-23T01:28:49;9.30;;;8.40;;
8113;SDS011;4099;52.684;9.918;2022-07-23T01:33:51;7.73;;;7.03;;
8113;SDS011;4099;52.684;9.918;2022-07-23T01:38:55;7.50;;;6.80;;
8113;SDS011;4099;52.684;9.918;2022-07-23T01:43:56;8.37;;;6.70;;
8113;SDS011;4099;52.684;9.918;2022-07-23T01:48:59;7.43;;;6.37;;
8113;SDS011;4099;52.684;9.918;2022-07-23T01:54:21;7.00;;;6.40;;
8113;SDS011;4099;52.684;9.918;2022-07-23T01:59:23;7.30;;;6.60;;
8113;SDS011;4099;52.684;9.918;2022-07-23T02:04:26;7.30;;;6.60;;
8113;SDS011;4099;52.684;9.918;2022-07-23T02:09:30;6.97;;;6.37;;
8113;SDS011;4099;52.684;9.918;2022-07-23T02:14:33;7.43;;;6.63;;
8113;SDS011;4099;52.684;9.918;2022-07-23T02:19:36;7.90;;;7.07;;
8113;SDS011;4099;52.684;9.918;2022-07-23T02:24:39;8.50;;;7.70;;
8113;SDS011;4099;52.684;9.918;2022-07-23T02:29:41;8.20;;;7.50;;
8113;SDS011;4099;52.684;9.918;2022-07-23T02:34:43;8.20;;;7.30;;
8113;SDS011;4099;52.684;9.918;2022-07-23T02:39:47;8.60;;;7.70;;
8113;SDS011;4099;52.684;9.918;2022-07-23T02:44:49;9.07;;;8.17;;
8113;SDS011;4099;52.684;9.918;2022-07-23T02:49:51;8.67;;;7.90;;
8113;SDS011;4099;52.684;9.918;2022-07-23T02:54:54;7.73;;;7.03;;
8113;SDS011;4099;52.684;9.918;2022-07-23T02:59:56;9.00;;;8.10;;
8113;SDS011;4099;52.684;9.918;2022-07-23T03:04:58;10.50;;;7.93;;
8113;SDS011;4099;52.684;9.918;2022-07-23T03:10:02;8.67;;;7.80;;
8113;SDS011;4099;52.684;9.918;2022-07-23T03:15:04;9.33;;;7.77;;
8113;SDS011;4099;52.684;9.918;2022-07-23T03:20:08;7.97;;;7.27;;
8113;SDS011;4099;52.684;9.918;2022-07-23T03:25:13;8.10;;;7.30;;
8113;SDS011;4099;52.684;9.918;2022-07-23T03:30:15;7.80;;;6.87;;
8113;SDS011;4099;52.684;9.918;2022-07-23T03:35:17;10.33;;;7.50;;
8113;SDS011;4099;52.684;9.918;2022-07-23T03:40:32;7.90;;;7.10;;
8113;SDS011;4099;52.684;9.918;2022-07-23T03:45:34;8.77;;;7.80;;
8113;SDS011;4099;52.684;9.918;2022-07-23T03:50:36;8.40;;;7.37;;
8113;SDS011;4099;52.684;9.918;2022-07-23T03:55:39;8.20;;;7.40;;
8113;SDS011;4099;52.684;9.918;2022-07-23T04:00:41;7.93;;;7.17;;
8113;SDS011;4099;52.684;9.918;2022-07-23T04:05:43;7.93;;;7.13;;
8113;SDS011;4099;52.684;9.918;2022-07-23T04:10:49;7.90;;;7.10;;
8113;SDS011;4099;52.684;9.918;2022-07-23T04:15:51;7.93;;;7.13;;
8113;SDS011;4099;52.684;9.918;2022-07-23T04:20:53;9.00;;;7.90;;
8113;SDS011;4099;52.684;9.918;2022-07-23T04:25:56;9.13;;;8.00;;
8113;SDS011;4099;52.684;9.918;2022-07-23T04:30:59;9.80;;;8.90;;
8113;SDS011;4099;52.684;9.918;2022-07-23T04:36:03;9.97;;;9.07;;
8113;SDS011;4099;52.684;9.918;2022-07-23T04:41:06;8.57;;;7.77;;
8113;SDS011;4099;52.684;9.918;2022-07-23T04:46:08;8.70;;;7.87;;
8113;SDS011;4099;52.684;9.918;2022-07-23T04:51:17;9.33;;;8.37;;
8113;SDS011;4099;52.684;9.918;2022-07-23T04:56:21;9.17;;;8.27;;
8113;SDS011;4099;52.684;9.918;2022-07-23T05:01:23;9.10;;;8.27;;
8113;SDS011;4099;52.684;9.918;2022-07-23T05:06:25;8.37;;;7.57;;
8113;SDS011;4099;52.684;9.918;2022-07-23T05:11:28;8.60;;;7.80;;
8113;SDS011;4099;52.684;9.918;2022-07-23T05:16:30;9.20;;;7.70;;
8113;SDS011;4099;52.684;9.918;2022-07-23T05:21:37;9.37;;;8.43;;
8113;SDS011;4099;52.684;9.918;2022-07-23T05:26:41;8.43;;;7.63;;
8113;SDS011;4099;52.684;9.918;2022-07-23T05:31:43;9.07;;;7.13;;
8113;SDS011;4099;52.684;9.918;2022-07-23T05:36:46;8.47;;;7.67;;
8113;SDS011;4099;52.684;9.918;2022-07-23T05:41:50;8.07;;;7.30;;
8113;SDS011;4099;52.684;9.918;2022-07-23T05:46:52;8.10;;;7.33;;
8113;SDS011;4099;52.684;9.918;2022-07-23T05:52:02;8.33;;;7.40;;
8113;SDS011;4099;52.684;9.918;2022-07-23T05:57:23;10.57;;;8.23;;
8113;SDS011;4099;52.684;9.918;2022-07-23T06:02:25;8.87;;;7.97;;
8113;SDS011;4099;52.684;9.918;2022-07-23T06:07:27;10.97;;;8.03;;
8113;SDS011;4099;52.684;9.918;2022-07-23T06:12:31;9.37;;;8.47;;
8113;SDS011;4099;52.684;9.918;2022-07-23T06:17:33;9.57;;;8.57;;
8113;SDS011;4099;52.684;9.918;2022-07-23T06:22:35;9.17;;;8.30;;
8113;SDS011;4099;52.684;9.918;2022-07-23T06:27:38;7.17;;;6.20;;
8113;SDS011;4099;52.684;9.918;2022-07-23T06:32:40;6.43;;;5.33;;
8113;SDS011;4099;52.684;9.918;2022-07-23T06:37:41;5.40;;;4.80;;
8113;SDS011;4099;52.684;9.918;2022-07-23T06:42:45;4.63;;;3.93;;
8113;SDS011;4099;52.684;9.918;2022-07-23T06:47:51;4.20;;;3.80;;
8113;SDS011;4099;52.684;9.918;2022-07-23T06:52:53;5.23;;;2.90;;
8113;SDS011;4099;52.684;9.918;2022-07-23T06:57:56;5.07;;;3.40;;
8113;SDS011;4099;52.684;9.918;2022-07-23T07:02:58;3.00;;;2.80;;
8113;SDS011;4099;52.684;9.918;2022-07-23T07:08:00;4.57;;;3.07;;
8113;SDS011;4099;52.684;9.918;2022-07-23T07:13:03;4.40;;;2.60;;
8113;SDS011;4099;52.684;9.918;2022-07-23T07:18:05;3.87;;;2.87;;
8113;SDS011;4099;52.684;9.918;2022-07-23T07:23:07;5.20;;;3.10;;
8113;SDS011;4099;52.684;9.918;2022-07-23T07:28:10;4.53;;;3.10;;
8113;SDS011;4099;52.684;9.918;2022-07-23T07:33:12;6.83;;;3.40;;
8113;SDS011;4099;52.684;9.918;2022-07-23T07:38:14;5.80;;;4.20;;
8113;SDS011;4099;52.684;9.918;2022-07-23T07:43:17;4.43;;;3.20;;
8113;SDS011;4099;52.684;9.918;2022-07-23T07:48:19;6.67;;;4.17;;
8113;SDS011;4099;52.684;9.918;2022-07-23T07:53:21;5.23;;;4.07;;
8113;SDS011;4099;52.684;9.918;2022-07-23T07:58:24;7.60;;;4.53;;
8113;SDS011;4099;52.684;9.918;2022-07-23T08:03:26;5.60;;;3.70;;
8113;SDS011;4099;52.684;9.918;2022-07-23T08:08:27;7.77;;;3.60;;
8113;SDS011;4099;52.684;9.918;2022-07-23T08:13:31;4.43;;;3.13;;
8113;SDS011;4099;52.684;9.918;2022-07-23T08:18:33;3.37;;;3.00;;
8113;SDS011;4099;52.684;9.918;2022-07-23T08:23:34;3.10;;;2.80;;
8113;SDS011;4099;52.684;9.918;2022-07-23T08:28:37;3.23;;;2.80;;
8113;SDS011;4099;52.684;9.918;2022-07-23T08:33:39;6.13;;;3.13;;
8113;SDS011;4099;52.684;9.918;2022-07-23T08:38:41;5.40;;;2.90;;
8113;SDS011;4099;52.684;9.918;2022-07-23T08:43:44;3.60;;;3.30;;
8113;SDS011;4099;52.684;9.918;2022-07-23T08:48:47;3.43;;;2.77;;
8113;SDS011;4099;52.684;9.918;2022-07-23T08:53:50;2.50;;;2.30;;
8113;SDS011;4099;52.684;9.918;2022-07-23T08:58:54;4.07;;;2.73;;
8113;SDS011;4099;52.684;9.918;2022-07-23T09:03:56;3.50;;;2.70;;
8113;SDS011;4099;52.684;9.918;2022-07-23T09:08:57;4.03;;;2.87;;
8113;SDS011;4099;52.684;9.918;2022-07-23T09:14:18;3.03;;;2.40;;
8113;SDS011;4099;52.684;9.918;2022-07-23T09:19:38;2.43;;;1.97;;
8113;SDS011;4099;52.684;9.918;2022-07-23T09:24:42;2.20;;;2.00;;
8113;SDS011;4099;52.684;9.918;2022-07-23T09:30:06;2.47;;;1.67;;
8113;SDS011;4099;52.684;9.918;2022-07-23T09:35:09;1.60;;;1.50;;
8113;SDS011;4099;52.684;9.918;2022-07-23T09:40:11;1.90;;;1.70;;
8113;SDS011;4099;52.684;9.918;2022-07-23T09:45:17;1.60;;;1.50;;
8113;SDS011;4099;52.684;9.918;2022-07-23T09:50:19;2.93;;;1.57;;
8113;SDS011;4099;52.684;9.918;2022-07-23T09:55:21;3.30;;;1.87;;
8113;SDS011;4099;52.684;9.918;2022-07-23T10:00:36;3.20;;;1.90;;
8113;SDS011;4099;52.684;9.918;2022-07-23T10:05:38;2.80;;;1.80;;
8113;SDS011;4099;52.684;9.918;2022-07-23T10:11:06;1.63;;;1.40;;
8113;SDS011;4099;52.684;9.918;2022-07-23T10:16:27;2.70;;;1.90;;
8113;SDS011;4099;52.684;9.918;2022-07-23T10:21:30;5.17;;;1.30;;
8113;SDS011;4099;52.684;9.918;2022-07-23T10:26:40;2.10;;;1.07;;
8113;SDS011;4099;52.684;9.918;2022-07-23T10:31:52;1.90;;;1.40;;
8113;SDS011;4099;52.684;9.918;2022-07-23T10:37:01;2.37;;;1.60;;
8113;SDS011;4099;52.684;9.918;2022-07-23T10:42:09;1.90;;;1.60;;
8113;SDS011;4099;52.684;9.918;2022-07-23T10:47:13;1.40;;;1.30;;
8113;SDS011;4099;52.684;9.918;2022-07-23T10:52:42;2.73;;;1.50;;
8113;SDS011;4099;52.684;9.918;2022-07-23T10:58:17;1.20;;;1.10;;
8113;SDS011;4099;52.684;9.918;2022-07-23T11:03:28;1.10;;;1.00;;
8113;SDS011;4099;52.684;9.918;2022-07-23T11:08:39;1.23;;;1.00;;
8113;SDS011;4099;52.684;9.918;2022-07-23T11:13:41;1.30;;;1.20;;
8113;SDS011;4099;52.684;9.918;2022-07-23T11:18:54;1.07;;;1.07;;
8113;SDS011;4099;52.684;9.918;2022-07-23T11:24:16;1.77;;;1.13;;
8113;SDS011;4099;52.684;9.918;2022-07-23T11:34:45;1.70;;;1.03;;
8113;SDS011;4099;52.684;9.918;2022-07-23T11:39:49;1.73;;;1.27;;
8113;SDS011;4099;52.684;9.918;2022-07-23T11:44:55;1.10;;;0.93;;
8113;SDS011;4099;52.684;9.918;2022-07-23T11:49:58;1.80;;;1.13;;
8113;SDS011;4099;52.684;9.918;2022-07-23T11:55:05;1.23;;;1.00;;
8113;SDS011;4099;52.684;9.918;2022-07-23T12:00:09;1.67;;;1.20;;
8113;SDS011;4099;52.684;9.918;2022-07-23T12:05:12;1.10;;;1.10;;
8113;SDS011;4099;52.684;9.918;2022-07-23T12:10:17;1.43;;;1.30;;
8113;SDS011;4099;52.684;9.918;2022-07-23T12:15:21;1.30;;;1.20;;
8113;SDS011;4099;52.684;9.918;2022-07-23T12:20:24;1.43;;;1.30;;
8113;SDS011;4099;52.684;9.918;2022-07-23T12:25:30;2.00;;;1.13;;
8113;SDS011;4099;52.684;9.918;2022-07-23T12:30:34;3.53;;;1.40;;
8113;SDS011;4099;52.684;9.918;2022-07-23T12:35:40;1.70;;;1.40;;
8113;SDS011;4099;52.684;9.918;2022-07-23T12:40:46;2.60;;;1.30;;
8113;SDS011;4099;52.684;9.918;2022-07-23T12:45:49;2.77;;;1.10;;
8113;SDS011;4099;52.684;9.918;2022-07-23T12:50:53;2.13;;;1.30;;
8113;SDS011;4099;52.684;9.918;2022-07-23T12:55:59;1.27;;;1.17;;
8113;SDS011;4099;52.684;9.918;2022-07-23T13:01:05;2.20;;;1.50;;
8113;SDS011;4099;52.684;9.918;2022-07-23T13:06:07;1.50;;;1.40;;
8113;SDS011;4099;52.684;9.918;2022-07-23T13:11:12;1.87;;;1.13;;
8113;SDS011;4099;52.684;9.918;2022-07-23T13:16:14;1.20;;;1.10;;
8113;SDS011;4099;52.684;9.918;2022-07-23T13:21:16;1.53;;;0.90;;
8113;SDS011;4099;52.684;9.918;2022-07-23T13:26:19;1.53;;;0.90;;
8113;SDS011;4099;52.684;9.918;2022-07-23T13:31:21;1.23;;;0.93;;
8113;SDS011;4099;52.684;9.918;2022-07-23T13:36:23;0.93;;;0.87;;
8113;SDS011;4099;52.684;9.918;2022-07-23T13:41:26;1.15;;;0.95;;
8113;SDS011;4099;52.684;9.918;2022-07-23T13:46:28;1.00;;;0.80;;
8113;SDS011;4099;52.684;9.918;2022-07-23T13:51:30;2.92;;;1.00;;
8113;SDS011;4099;52.684;9.918;2022-07-23T13:56:34;0.60;;;0.60;;
8113;SDS011;4099;52.684;9.918;2022-07-23T14:01:36;2.13;;;0.95;;
8113;SDS011;4099;52.684;9.918;2022-07-23T14:06:38;2.47;;;0.80;;
8113;SDS011;4099;52.684;9.918;2022-07-23T14:11:41;1.30;;;0.90;;
8113;SDS011;4099;52.684;9.918;2022-07-23T14:16:43;4.73;;;3.33;;
8113;SDS011;4099;52.684;9.918;2022-07-23T14:21:45;2.37;;;1.10;;
8113;SDS011;4099;52.684;9.918;2022-07-23T14:26:50;0.80;;;0.73;;
8113;SDS011;4099;52.684;9.918;2022-07-23T14:31:52;1.00;;;0.88;;
8113;SDS011;4099;52.684;9.918;2022-07-23T14:36:54;0.60;;;0.60;;
8113;SDS011;4099;52.684;9.918;2022-07-23T14:41:57;0.88;;;0.77;;
8113;SDS011;4099;52.684;9.918;2022-07-23T14:47:00;1.40;;;0.85;;
8113;SDS011;4099;52.684;9.918;2022-07-23T14:52:03;0.60;;;0.60;;
8113;SDS011;4099;52.684;9.918;2022-07-23T14:57:07;0.95;;;0.60;;
8113;SDS011;4099;52.684;9.918;2022-07-23T15:02:09;1.05;;;0.95;;
8113;SDS011;4099;52.684;9.918;2022-07-23T15:07:12;1.27;;;0.82;;
8113;SDS011;4099;52.684;9.918;2022-07-23T15:12:15;0.80;;;0.63;;
8113;SDS011;4099;52.684;9.918;2022-07-23T15:17:17;0.97;;;0.70;;
8113;SDS011;4099;52.684;9.918;2022-07-23T15:22:19;1.40;;;0.80;;
8113;SDS011;4099;52.684;9.918;2022-07-23T15:27:23;1.20;;;0.80;;
8113;SDS011;4099;52.684;9.918;2022-07-23T15:32:25;0.53;;;0.53;;
8113;SDS011;4099;52.684;9.918;2022-07-23T15:37:27;0.83;;;0.83;;
8113;SDS011;4099;52.684;9.918;2022-07-23T15:42:32;2.30;;;1.00;;
8113;SDS011;4099;52.684;9.918;2022-07-23T15:47:35;1.60;;;0.80;;
8113;SDS011;4099;52.684;9.918;2022-07-23T15:52:37;1.97;;;1.00;;
8113;SDS011;4099;52.684;9.918;2022-07-23T15:57:41;1.70;;;0.80;;
8113;SDS011;4099;52.684;9.918;2022-07-23T16:02:43;1.73;;;0.70;;
8113;SDS011;4099;52.684;9.918;2022-07-23T16:07:46;1.10;;;0.80;;
8113;SDS011;4099;52.684;9.918;2022-07-23T16:12:50;2.33;;;1.00;;
8113;SDS011;4099;52.684;9.918;2022-07-23T16:17:53;1.83;;;0.90;;
8113;SDS011;4099;52.684;9.918;2022-07-23T16:22:56;0.73;;;0.73;;
8113;SDS011;4099;52.684;9.918;2022-07-23T16:28:00;1.50;;;0.80;;
8113;SDS011;4099;52.684;9.918;2022-07-23T16:33:02;1.33;;;0.77;;
8113;SDS011;4099;52.684;9.918;2022-07-23T16:38:05;1.60;;;0.70;;
8113;SDS011;4099;52.684;9.918;2022-07-23T16:43:09;0.90;;;0.90;;
8113;SDS011;4099;52.684;9.918;2022-07-23T16:48:11;0.95;;;0.70;;
8113;SDS011;4099;52.684;9.918;2022-07-23T16:53:14;0.98;;;0.70;;
8113;SDS011;4099;52.684;9.918;2022-07-23T16:58:18;0.77;;;0.70;;
8113;SDS011;4099;52.684;9.918;2022-07-23T17:03:21;1.73;;;0.55;;
8113;SDS011;4099;52.684;9.918;2022-07-23T17:08:25;1.05;;;0.55;;
8113;SDS011;4099;52.684;9.918;2022-07-23T17:13:30;0.90;;;0.70;;
8113;SDS011;4099;52.684;9.918;2022-07-23T17:18:32;0.85;;;0.50;;
8113;SDS011;4099;52.684;9.918;2022-07-23T17:23:35;1.15;;;0.82;;
8113;SDS011;4099;52.684;9.918;2022-07-23T17:28:38;1.65;;;0.50;;
8113;SDS011;4099;52.684;9.918;2022-07-23T17:33:41;1.45;;;0.85;;
8113;SDS011;4099;52.684;9.918;2022-07-23T17:38:43;0.63;;;0.63;;
8113;SDS011;4099;52.684;9.918;2022-07-23T17:43:47;1.27;;;0.98;;
8113;SDS011;4099;52.684;9.918;2022-07-23T17:48:50;1.05;;;0.95;;
8113;SDS011;4099;52.684;9.918;2022-07-23T17:53:52;0.68;;;0.60;;
8113;SDS011;4099;52.684;9.918;2022-07-23T17:58:56;0.93;;;0.80;;
8113;SDS011;4099;52.684;9.918;2022-07-23T18:03:59;0.80;;;0.80;;
8113;SDS011;4099;52.684;9.918;2022-07-23T18:09:02;2.27;;;1.07;;
8113;SDS011;4099;52.684;9.918;2022-07-23T18:14:06;0.70;;;0.70;;
8113;SDS011;4099;52.684;9.918;2022-07-23T18:19:10;1.10;;;0.90;;
8113;SDS011;4099;52.684;9.918;2022-07-23T18:24:13;4.87;;;1.10;;
8113;SDS011;4099;52.684;9.918;2022-07-23T18:29:16;3.63;;;1.00;;
8113;SDS011;4099;52.684;9.918;2022-07-23T18:34:19;1.00;;;0.90;;
8113;SDS011;4099;52.684;9.918;2022-07-23T18:39:22;3.03;;;1.10;;
8113;SDS011;4099;52.684;9.918;2022-07-23T18:44:25;1.63;;;0.90;;
8113;SDS011;4099;52.684;9.918;2022-07-23T18:49:28;1.70;;;1.10;;
8113;SDS011;4099;52.684;9.918;2022-07-23T18:54:31;0.80;;;0.80;;
8113;SDS011;4099;52.684;9.918;2022-07-23T18:59:35;1.97;;;1.23;;
8113;SDS011;4099;52.684;9.918;2022-07-23T19:04:37;1.80;;;1.13;;
8113;SDS011;4099;52.684;9.918;2022-07-23T19:09:39;1.90;;;1.30;;
8113;SDS011;4099;52.684;9.918;2022-07-23T19:14:43;1.13;;;0.97;;
8113;SDS011;4099;52.684;9.918;2022-07-23T19:19:45;1.57;;;1.33;;
8113;SDS011;4099;52.684;9.918;2022-07-23T19:24:48;1.83;;;1.30;;
8113;SDS011;4099;52.684;9.918;2022-07-23T19:29:51;1.53;;;1.30;;
8113;SDS011;4099;52.684;9.918;2022-07-23T19:34:54;2.30;;;1.43;;
8113;SDS011;4099;52.684;9.918;2022-07-23T19:39:56;1.63;;;1.30;;
8113;SDS011;4099;52.684;9.918;2022-07-23T19:44:59;2.80;;;1.60;;
8113;SDS011;4099;52.684;9.918;2022-07-23T19:50:03;2.53;;;1.50;;
8113;SDS011;4099;52.684;9.918;2022-07-23T19:55:07;1.60;;;1.50;;
8113;SDS011;4099;52.684;9.918;2022-07-23T20:00:13;1.53;;;1.30;;
8113;SDS011;4099;52.684;9.918;2022-07-23T20:05:16;1.60;;;1.50;;
8113;SDS011;4099;52.684;9.918;2022-07-23T20:10:18;1.67;;;1.50;;
8113;SDS011;4099;52.684;9.918;2022-07-23T20:15:22;3.07;;;1.70;;
8113;SDS011;4099;52.684;9.918;2022-07-23T20:20:25;2.60;;;1.47;;
8113;SDS011;4099;52.684;9.918;2022-07-23T20:25:28;2.17;;;1.50;;
8113;SDS011;4099;52.684;9.918;2022-07-23T20:30:32;1.53;;;1.40;;
8113;SDS011;4099;52.684;9.918;2022-07-23T20:35:34;1.67;;;1.40;;
8113;SDS011;4099;52.684;9.918;2022-07-23T20:40:36;2.03;;;1.67;;
8113;SDS011;4099;52.684;9.918;2022-07-23T20:45:42;2.30;;;2.10;;
8113;SDS011;4099;52.684;9.918;2022-07-23T20:50:44;1.97;;;1.73;;
8113;SDS011;4099;52.684;9.918;2022-07-23T20:55:49;2.80;;;2.47;;
8113;SDS011;4099;52.684;9.918;2022-07-23T21:00:53;2.33;;;2.10;;
8113;SDS011;4099;52.684;9.918;2022-07-23T21:05:55;3.53;;;3.13;;
8113;SDS011;4099;52.684;9.918;2022-07-23T21:10:58;2.73;;;2.53;;
8113;SDS011;4099;52.684;9.918;2022-07-23T21:16:02;2.70;;;2.50;;
8113;SDS011;4099;52.684;9.918;2022-07-23T21:21:05;4.00;;;2.83;;
8113;SDS011;4099;52.684;9.918;2022-07-23T21:26:11;4.17;;;3.57;;
8113;SDS011;4099;52.684;9.918;2022-07-23T21:31:16;4.20;;;3.80;;
8113;SDS011;4099;52.684;9.918;2022-07-23T21:36:18;8.03;;;6.83;;
8113;SDS011;4099;52.684;9.918;2022-07-23T21:41:21;5.63;;;5.10;;
8113;SDS011;4099;52.684;9.918;2022-07-23T21:46:30;5.27;;;4.10;;
8113;SDS011;4099;52.684;9.918;2022-07-23T21:51:34;4.27;;;3.87;;
8113;SDS011;4099;52.684;9.918;2022-07-23T21:56:36;3.93;;;3.57;;
8113;SDS011;4099;52.684;9.918;2022-07-23T22:01:41;3.57;;;2.83;;
8113;SDS011;4099;52.684;9.918;2022-07-23T22:06:43;4.00;;;3.47;;
8113;SDS011;4099;52.684;9.918;2022-07-23T22:11:46;5.60;;;5.10;;
8113;SDS011;4099;52.684;9.918;2022-07-23T22:16:50;5.57;;;5.07;;
8113;SDS011;4099;52.684;9.918;2022-07-23T22:21:52;4.47;;;3.83;;
8113;SDS011;4099;52.684;9.918;2022-07-23T22:26:54;3.30;;;3.00;;
8113;SDS011;4099;52.684;9.918;2022-07-23T22:31:58;2.80;;;2.60;;
8113;SDS011;4099;52.684;9.918;2022-07-23T22:37:01;2.87;;;2.33;;
8113;SDS011;4099;52.684;9.918;2022-07-23T22:42:03;2.90;;;2.07;;
8113;SDS011;4099;52.684;9.918;2022-07-23T22:47:07;2.60;;;2.40;;
8113;SDS011;4099;52.684;9.918;2022-07-23T22:52:09;2.17;;;1.97;;
8113;SDS011;4099;52.684;9.918;2022-07-23T22:57:12;2.50;;;1.90;;
8113;SDS011;4099;52.684;9.918;2022-07-23T23:02:16;3.57;;;2.70;;
8113;SDS011;4099;52.684;9.918;2022-07-23T23:07:18;2.70;;;2.50;;
8113;SDS011;4099;52.684;9.918;2022-07-23T23:12:20;3.33;;;2.70;;
8113;SDS011;4099;52.684;9.918;2022-07-23T23:17:24;3.37;;;3.07;;
8113;SDS011;4099;52.684;9.918;2022-07-23T23:22:26;3.17;;;2.97;;
8113;SDS011;4099;52.684;9.918;2022-07-23T23:27:29;3.17;;;2.90;;
8113;SDS011;4099;52.684;9.918;2022-07-23T23:32:32;3.93;;;2.90;;
8113;SDS011;4099;52.684;9.918;2022-07-23T23:37:34;2.93;;;2.73;;
8113;SDS011;4099;52.684;9.918;2022-07-23T23:42:36;2.43;;;2.33;;
8113;SDS011;4099;52.684;9.918;2022-07-23T23:47:39;2.73;;;2.53;;
8113;SDS011;4099;52.684;9.918;2022-07-23T23:52:41;3.07;;;2.80;;
8113;SDS011;4099;52.684;9.918;2022-07-23T23:57:43;4.47;;;2.93;;
